createdAt,value
2022-10-04T00:00:00.082Z,100.00
2022-10-04T00:02:34.122Z,100.00
2022-10-04T00:05:08.324Z,100.00
2022-10-04T00:07:51.140Z,100.00
2022-10-04T00:10:23.961Z,100.00
2022-10-04T00:13:00.577Z,100.00
2022-10-04T00:15:37.534Z,100.00
2022-10-04T00:18:21.283Z,100.00
2022-10-04T00:20:51.067Z,100.00
2022-10-04T00:23:23.981Z,100.00
2022-10-04T00:25:59.725Z,100.00
2022-10-04T00:28:26.595Z,100.00
2022-10-04T00:31:32.586Z,100.00
2022-10-04T00:34:08.534Z,100.00
2022-10-04T00:36:46.009Z,100.00
2022-10-04T00:39:26.290Z,100.00
2022-10-04T00:42:24.972Z,100.00
2022-10-04T00:44:58.837Z,100.00
2022-10-04T00:47:46.767Z,100.00
2022-10-04T00:50:37.108Z,100.00
2022-10-04T00:53:20.537Z,100.00
2022-10-04T00:55:54.457Z,100.00
2022-10-04T00:58:29.640Z,100.00
2022-10-04T01:00:58.005Z,100.00
2022-10-04T01:03:38.787Z,100.00
2022-10-04T01:06:10.719Z,100.00
2022-10-04T01:08:52.356Z,100.00
2022-10-04T01:11:27.967Z,100.00
2022-10-04T01:14:04.772Z,100.00
2022-10-04T01:16:37.408Z,100.00
2022-10-04T01:19:22.536Z,100.00
2022-10-04T01:22:07.691Z,100.00
2022-10-04T01:24:41.356Z,100.00
2022-10-04T01:27:42.155Z,100.00
2022-10-04T01:30:17.449Z,100.00
2022-10-04T01:32:45.508Z,100.00
2022-10-04T01:35:14.914Z,100.00
2022-10-04T01:37:41.969Z,100.00
2022-10-04T01:40:10.305Z,100.00
2022-10-04T01:42:52.109Z,100.00
2022-10-04T01:45:37.944Z,100.00
2022-10-04T01:48:19.165Z,100.00
2022-10-04T01:50:58.969Z,100.00
2022-10-04T01:53:32.357Z,100.00
2022-10-04T01:56:17.453Z,100.00
2022-10-04T01:59:02.075Z,100.00
2022-10-04T02:01:55.814Z,100.00
2022-10-04T02:04:29.609Z,100.00
2022-10-04T02:06:59.878Z,100.00
2022-10-04T02:09:33.853Z,100.00
2022-10-04T02:12:01.729Z,100.00
2022-10-04T02:14:35.289Z,100.00
2022-10-04T02:17:07.964Z,100.00
2022-10-04T02:19:42.838Z,100.00
2022-10-04T02:22:11.308Z,100.00
2022-10-04T02:24:45.083Z,100.00
2022-10-04T02:27:13.098Z,100.00
2022-10-04T02:29:40.033Z,100.00
2022-10-04T02:32:27.245Z,100.00
2022-10-04T02:34:55.880Z,100.00
2022-10-04T02:37:26.038Z,100.00
2022-10-04T02:40:22.986Z,100.00
2022-10-04T02:43:16.946Z,100.00
2022-10-04T02:45:55.457Z,100.00
2022-10-04T02:48:45.373Z,100.00
2022-10-04T02:51:41.238Z,100.00
2022-10-04T02:54:20.840Z,100.00
2022-10-04T02:56:54.934Z,100.00
2022-10-04T02:59:22.392Z,100.00
2022-10-04T03:02:01.518Z,100.00
2022-10-04T03:04:34.103Z,100.00
2022-10-04T03:07:05.342Z,100.00
2022-10-04T03:09:33.034Z,100.00
2022-10-04T03:12:00.166Z,100.00
2022-10-04T03:14:28.539Z,100.00
2022-10-04T03:17:00.737Z,100.00
2022-10-04T03:19:30.242Z,100.00
2022-10-04T03:22:02.928Z,100.00
2022-10-04T03:24:47.610Z,100.00
2022-10-04T03:27:26.302Z,100.00
2022-10-04T03:29:58.908Z,100.00
2022-10-04T03:32:30.579Z,100.00
2022-10-04T03:35:04.473Z,100.00
2022-10-04T03:37:36.546Z,100.00
2022-10-04T03:40:08.622Z,100.00
2022-10-04T03:42:37.685Z,100.00
2022-10-04T03:45:08.514Z,100.00
2022-10-04T03:47:44.352Z,100.00
2022-10-04T03:50:28.292Z,100.00
2022-10-04T03:53:09.769Z,100.00
2022-10-04T03:55:45.900Z,100.00
2022-10-04T03:58:17.042Z,100.00
2022-10-04T04:01:11.784Z,100.00
2022-10-04T04:04:00.413Z,100.00
2022-10-04T04:06:56.329Z,100.00
2022-10-04T04:09:45.974Z,100.00
2022-10-04T04:12:25.608Z,100.00
2022-10-04T04:14:53.342Z,100.00
2022-10-04T04:17:26.133Z,100.00
2022-10-04T04:19:55.044Z,100.00
2022-10-04T04:22:22.175Z,100.00
2022-10-04T04:24:50.392Z,100.00
2022-10-04T04:27:19.676Z,100.00
2022-10-04T04:29:52.184Z,100.00
2022-10-04T04:32:25.363Z,100.00
2022-10-04T04:34:54.357Z,100.00
2022-10-04T04:37:21.203Z,100.00
2022-10-04T04:39:54.834Z,100.00
2022-10-04T04:42:31.751Z,100.00
2022-10-04T04:45:11.887Z,100.00
2022-10-04T04:47:50.526Z,100.00
2022-10-04T04:50:34.198Z,100.00
2022-10-04T04:53:12.846Z,100.00
2022-10-04T04:56:05.062Z,100.00
2022-10-04T04:58:43.398Z,100.00
2022-10-04T05:01:23.830Z,100.00
2022-10-04T05:04:04.190Z,100.00
2022-10-04T05:06:34.218Z,100.00
2022-10-04T05:09:01.945Z,100.00
2022-10-04T05:11:34.453Z,100.00
2022-10-04T05:14:11.257Z,100.00
2022-10-04T05:16:56.256Z,100.00
2022-10-04T05:19:30.332Z,100.00
2022-10-04T05:22:00.824Z,100.00
2022-10-04T05:24:32.624Z,100.00
2022-10-04T05:27:18.649Z,100.00
2022-10-04T05:30:32.551Z,100.00
2022-10-04T05:33:11.330Z,100.00
2022-10-04T05:36:25.410Z,100.00
2022-10-04T05:39:37.778Z,100.00
2022-10-04T05:42:13.540Z,100.00
2022-10-04T05:45:25.820Z,100.00
2022-10-04T05:47:58.289Z,100.00
2022-10-04T05:50:40.650Z,100.00
2022-10-04T05:53:28.740Z,100.00
2022-10-04T05:56:29.496Z,100.00
2022-10-04T05:59:23.260Z,100.00
2022-10-04T06:02:17.695Z,100.00
2022-10-04T06:05:04.311Z,100.00
2022-10-04T06:07:45.536Z,100.00
2022-10-04T06:10:33.328Z,100.00
2022-10-04T06:13:24.369Z,100.00
2022-10-04T06:16:09.381Z,100.00
2022-10-04T06:19:08.969Z,100.00
2022-10-04T06:21:49.998Z,100.00
2022-10-04T06:24:26.694Z,100.00
2022-10-04T06:27:02.645Z,100.00
2022-10-04T06:29:36.732Z,100.00
2022-10-04T06:32:46.925Z,100.00
2022-10-04T06:35:51.863Z,100.00
2022-10-04T06:38:32.829Z,100.00
2022-10-04T06:41:12.140Z,100.00
2022-10-04T06:44:37.764Z,100.00
2022-10-04T06:47:42.497Z,100.00
2022-10-04T06:50:40.068Z,100.00
2022-10-04T06:53:51.903Z,100.00
2022-10-04T06:56:36.722Z,100.00
2022-10-04T06:59:25.070Z,100.00
2022-10-04T07:02:08.568Z,100.00
2022-10-04T07:05:07.691Z,100.00
2022-10-04T07:07:39.609Z,100.00
2022-10-04T07:10:21.936Z,100.00
2022-10-04T07:13:24.039Z,100.00
2022-10-04T07:16:03.937Z,100.00
2022-10-04T07:19:09.639Z,100.00
2022-10-04T07:22:08.059Z,100.00
2022-10-04T07:24:57.764Z,100.00
2022-10-04T07:28:11.372Z,100.00
2022-10-04T07:30:57.174Z,100.00
2022-10-04T07:33:28.272Z,100.00
2022-10-04T07:36:08.283Z,100.00
2022-10-04T07:38:46.367Z,100.00
2022-10-04T07:41:35.290Z,100.00
2022-10-04T07:44:30.340Z,100.00
2022-10-04T07:47:21.236Z,100.00
2022-10-04T07:49:51.239Z,100.00
2022-10-04T07:52:52.668Z,100.00
2022-10-04T07:55:39.761Z,100.00
2022-10-04T07:58:46.007Z,100.00
2022-10-04T08:01:51.162Z,100.00
2022-10-04T08:04:45.502Z,100.00
2022-10-04T08:07:46.293Z,100.00
2022-10-04T08:10:54.224Z,100.00
2022-10-04T08:13:37.042Z,100.00
2022-10-04T08:16:32.550Z,100.00
2022-10-04T08:19:35.992Z,100.00
2022-10-04T08:22:08.901Z,100.00
2022-10-04T08:24:43.838Z,100.00
2022-10-04T08:27:37.118Z,100.00
2022-10-04T08:30:12.729Z,100.00
2022-10-04T08:32:52.030Z,100.00
2022-10-04T08:35:21.461Z,100.00
2022-10-04T08:38:00.987Z,100.00
2022-10-04T08:41:08.374Z,100.00
2022-10-04T08:44:32.524Z,100.00
2022-10-04T08:47:51.182Z,100.00
2022-10-04T08:50:44.364Z,100.00
2022-10-04T08:53:49.250Z,100.00
2022-10-04T08:56:54.169Z,100.00
2022-10-04T09:00:00.052Z,100.00
2022-10-04T09:03:05.184Z,100.00
2022-10-04T09:05:53.380Z,100.00
2022-10-04T09:09:17.507Z,100.00
2022-10-04T09:12:08.992Z,100.00
2022-10-04T09:14:38.833Z,100.00
2022-10-04T09:17:50.948Z,100.00
2022-10-04T09:20:40.804Z,100.00
2022-10-04T09:23:34.156Z,100.00
2022-10-04T09:26:32.376Z,100.00
2022-10-04T09:29:16.808Z,100.00
2022-10-04T09:32:26.470Z,100.00
2022-10-04T09:35:15.084Z,100.00
2022-10-04T09:38:16.747Z,100.00
2022-10-04T09:41:03.655Z,100.00
2022-10-04T09:44:13.747Z,100.00
2022-10-04T09:47:02.114Z,100.00
2022-10-04T09:50:13.776Z,100.00
2022-10-04T09:53:44.339Z,100.00
2022-10-04T09:56:47.737Z,100.00
2022-10-04T09:59:37.382Z,100.00
2022-10-04T10:03:01.650Z,100.00
2022-10-04T10:05:57.258Z,100.00
2022-10-04T10:08:54.849Z,100.00
2022-10-04T10:11:59.357Z,100.00
2022-10-04T10:15:11.598Z,100.00
2022-10-04T10:18:22.335Z,100.00
2022-10-04T10:21:12.730Z,100.00
2022-10-04T10:24:32.347Z,100.00
2022-10-04T10:27:34.024Z,100.00
2022-10-04T10:30:20.318Z,100.00
2022-10-04T10:33:38.220Z,100.00
2022-10-04T10:36:53.520Z,100.00
2022-10-04T10:39:54.084Z,100.00
2022-10-04T10:42:27.745Z,100.00
2022-10-04T10:45:30.413Z,100.00
2022-10-04T10:48:52.723Z,100.00
2022-10-04T10:51:25.620Z,100.00
2022-10-04T10:54:38.536Z,100.00
2022-10-04T10:57:25.762Z,100.00
2022-10-04T11:00:17.377Z,100.00
2022-10-04T11:03:25.368Z,100.00
2022-10-04T11:06:15.317Z,100.00
2022-10-04T11:09:19.933Z,100.00
2022-10-04T11:12:20.821Z,100.00
2022-10-04T11:15:54.355Z,100.00
2022-10-04T11:19:15.965Z,100.00
2022-10-04T11:22:02.614Z,100.00
2022-10-04T11:25:25.215Z,100.00
2022-10-04T11:28:03.821Z,100.00
2022-10-04T11:31:13.384Z,100.00
2022-10-04T11:34:24.654Z,100.00
2022-10-04T11:37:19.683Z,100.00
2022-10-04T11:40:25.226Z,100.00
2022-10-04T11:43:31.793Z,100.00
2022-10-04T11:46:57.007Z,100.00
2022-10-04T11:50:03.412Z,100.00
2022-10-04T11:53:13.997Z,100.00
2022-10-04T11:55:54.925Z,100.00
2022-10-04T11:58:39.862Z,100.00
2022-10-04T12:01:46.816Z,100.00
2022-10-04T12:04:43.344Z,100.00
2022-10-04T12:07:34.164Z,100.00
2022-10-04T12:10:25.449Z,100.00
2022-10-04T12:13:39.383Z,100.00
2022-10-04T12:16:39.681Z,100.00
2022-10-04T12:19:30.945Z,100.00
2022-10-04T12:22:33.997Z,100.00
2022-10-04T12:25:33.187Z,100.00
2022-10-04T12:28:44.173Z,95.50
2022-10-04T12:31:37.203Z,97.88
2022-10-04T12:34:15.685Z,95.66
2022-10-04T12:36:54.113Z,98.78
2022-10-04T12:40:03.649Z,99.71
2022-10-04T12:43:10.097Z,100.00
2022-10-04T12:46:36.148Z,100.00
2022-10-04T12:49:56.241Z,100.00
2022-10-04T12:52:27.259Z,100.00
2022-10-04T12:55:19.799Z,100.00
2022-10-04T12:57:55.484Z,100.00
2022-10-04T13:00:24.961Z,100.00
2022-10-04T13:03:10.273Z,100.00
2022-10-04T13:06:20.636Z,100.00
2022-10-04T13:09:07.753Z,100.00
2022-10-04T13:12:00.447Z,100.00
2022-10-04T13:15:02.177Z,100.00
2022-10-04T13:17:36.410Z,100.00
2022-10-04T13:20:18.290Z,100.00
2022-10-04T13:23:08.210Z,100.00
2022-10-04T13:26:03.994Z,100.00
2022-10-04T13:29:03.160Z,100.00
2022-10-04T13:31:50.625Z,100.00
2022-10-04T13:34:51.869Z,100.00
2022-10-04T13:38:01.525Z,100.00
2022-10-04T13:40:56.075Z,100.00
2022-10-04T13:44:00.967Z,100.00
2022-10-04T13:47:29.435Z,100.00
2022-10-04T13:50:05.081Z,97.01
2022-10-04T13:53:38.805Z,96.24
2022-10-04T13:56:36.922Z,97.03
2022-10-04T13:59:37.322Z,97.95
2022-10-04T14:02:44.020Z,97.47
2022-10-04T14:05:37.849Z,98.01
2022-10-04T14:08:28.611Z,93.95
2022-10-04T14:11:37.356Z,94.20
2022-10-04T14:14:48.276Z,94.37
2022-10-04T14:17:49.681Z,93.85
2022-10-04T14:20:49.010Z,91.56
2022-10-04T14:23:36.803Z,92.43
2022-10-04T14:26:37.087Z,92.58
2022-10-04T14:29:35.937Z,89.72
2022-10-04T14:32:24.093Z,85.10
2022-10-04T14:35:16.271Z,82.01
2022-10-04T14:38:12.053Z,81.71
2022-10-04T14:41:01.967Z,82.60
2022-10-04T14:44:09.016Z,82.08
2022-10-04T14:46:57.400Z,81.37
2022-10-04T14:49:40.202Z,82.83
2022-10-04T14:52:33.129Z,84.38
2022-10-04T14:55:38.195Z,85.07
2022-10-04T14:58:23.419Z,85.04
2022-10-04T15:01:21.016Z,84.78
2022-10-04T15:04:25.964Z,85.09
2022-10-04T15:07:30.084Z,82.43
2022-10-04T15:10:25.643Z,82.22
2022-10-04T15:13:11.517Z,81.60
2022-10-04T15:16:00.502Z,82.38
2022-10-04T15:18:56.885Z,80.02
2022-10-04T15:21:23.531Z,83.59
2022-10-04T15:23:59.723Z,86.31
2022-10-04T15:26:29.481Z,87.77
2022-10-04T15:29:33.178Z,89.28
2022-10-04T15:32:35.578Z,86.87
2022-10-04T15:35:51.797Z,82.88
2022-10-04T15:38:53.669Z,82.04
2022-10-04T15:41:54.097Z,84.33
2022-10-04T15:44:54.972Z,84.37
2022-10-04T15:47:55.680Z,85.24
2022-10-04T15:53:24.754Z,87.10
2022-10-04T15:56:22.497Z,86.93
2022-10-04T15:59:10.878Z,86.36
2022-10-04T16:01:49.478Z,87.10
2022-10-04T16:04:40.580Z,85.53
2022-10-04T16:07:07.238Z,88.66
2022-10-04T16:10:12.233Z,90.98
2022-10-04T16:12:48.432Z,93.56
2022-10-04T16:15:32.178Z,96.78
2022-10-04T16:18:43.323Z,99.41
2022-10-04T16:21:19.185Z,100.00
2022-10-04T16:23:46.005Z,100.00
2022-10-04T16:26:19.520Z,100.00
2022-10-04T16:29:00.979Z,100.00
2022-10-04T16:32:10.380Z,100.00
2022-10-04T16:34:48.000Z,100.00
2022-10-04T16:37:23.821Z,100.00
2022-10-04T16:40:05.523Z,100.00
2022-10-04T16:42:50.000Z,100.00
2022-10-04T16:45:53.555Z,100.00
2022-10-04T16:48:51.221Z,100.00
2022-10-04T16:51:17.870Z,100.00
2022-10-04T16:54:21.921Z,100.00
2022-10-04T16:56:56.387Z,100.00
2022-10-04T16:59:38.536Z,100.00
2022-10-04T17:02:51.593Z,100.00
2022-10-04T17:05:48.631Z,100.00
2022-10-04T17:08:15.377Z,100.00
2022-10-04T17:11:28.062Z,100.00
2022-10-04T17:14:02.395Z,100.00
2022-10-04T17:16:56.052Z,100.00
2022-10-04T17:19:45.553Z,100.00
2022-10-04T17:23:09.345Z,100.00
2022-10-04T17:25:57.055Z,100.00
2022-10-04T17:28:49.107Z,100.00
2022-10-04T17:31:35.203Z,100.00
2022-10-04T17:34:30.207Z,100.00
2022-10-04T17:37:24.342Z,100.00
2022-10-04T17:40:12.934Z,100.00
2022-10-04T17:46:50.713Z,100.00
2022-10-04T17:49:47.698Z,100.00
2022-10-04T17:52:42.849Z,100.00
2022-10-04T17:55:22.996Z,100.00
2022-10-04T17:58:02.136Z,100.00
2022-10-04T18:01:07.914Z,100.00
2022-10-04T18:03:44.549Z,100.00
2022-10-04T18:06:30.580Z,100.00
2022-10-04T18:09:22.714Z,100.00
2022-10-04T18:11:56.864Z,100.00
2022-10-04T18:14:36.370Z,100.00
2022-10-04T18:17:09.185Z,100.00
2022-10-04T18:20:04.752Z,100.00
2022-10-04T18:22:46.634Z,100.00
2022-10-04T18:25:19.461Z,100.00
2022-10-04T18:28:08.412Z,100.00
2022-10-04T18:31:00.054Z,100.00
2022-10-04T18:33:49.830Z,100.00
2022-10-04T18:36:22.269Z,100.00
2022-10-04T18:39:14.283Z,100.00
2022-10-04T18:41:54.012Z,100.00
2022-10-04T18:44:29.470Z,100.00
2022-10-04T18:47:02.287Z,100.00
2022-10-04T18:49:31.069Z,100.00
2022-10-04T18:52:09.547Z,100.00
2022-10-04T18:55:07.136Z,100.00
2022-10-04T18:58:00.473Z,100.00
2022-10-04T19:01:08.497Z,100.00
2022-10-04T19:03:53.377Z,100.00
2022-10-04T19:06:30.642Z,100.00
2022-10-04T19:09:40.895Z,100.00
2022-10-04T19:12:53.783Z,100.00
2022-10-04T19:15:58.660Z,100.00
2022-10-04T19:18:32.272Z,100.00
2022-10-04T19:21:44.013Z,100.00
2022-10-04T19:25:06.076Z,100.00
2022-10-04T19:28:03.584Z,100.00
2022-10-04T19:31:01.824Z,100.00
2022-10-04T19:33:55.223Z,100.00
2022-10-04T19:36:39.224Z,100.00
2022-10-04T19:39:27.660Z,100.00
2022-10-04T19:42:08.445Z,100.00
2022-10-04T19:44:59.957Z,100.00
2022-10-04T19:47:49.385Z,100.00
2022-10-04T19:50:31.195Z,100.00
2022-10-04T19:53:09.777Z,100.00
2022-10-04T19:55:56.741Z,100.00
2022-10-04T19:58:45.127Z,100.00
2022-10-04T20:01:23.170Z,100.00
2022-10-04T20:04:11.139Z,100.00
2022-10-04T20:06:48.541Z,100.00
2022-10-04T20:09:47.905Z,100.00
2022-10-04T20:12:38.109Z,100.00
2022-10-04T20:15:17.016Z,100.00
2022-10-04T20:17:45.910Z,100.00
2022-10-04T20:20:42.922Z,100.00
2022-10-04T20:23:10.560Z,100.00
2022-10-04T20:25:43.402Z,100.00
2022-10-04T20:28:32.184Z,100.00
2022-10-04T20:31:05.480Z,100.00
2022-10-04T20:33:36.786Z,100.00
2022-10-04T20:36:10.177Z,100.00
2022-10-04T20:39:05.931Z,100.00
2022-10-04T20:41:52.535Z,100.00
2022-10-04T20:44:58.903Z,100.00
2022-10-04T20:47:47.726Z,100.00
2022-10-04T20:50:42.187Z,100.00
2022-10-04T20:53:29.715Z,100.00
2022-10-04T20:56:24.377Z,100.00
2022-10-04T20:58:54.035Z,100.00
2022-10-04T21:01:46.345Z,100.00
2022-10-04T21:04:41.702Z,100.00
2022-10-04T21:07:33.136Z,100.00
2022-10-04T21:10:20.679Z,100.00
2022-10-04T21:12:49.917Z,100.00
2022-10-04T21:15:16.550Z,100.00
2022-10-04T21:18:10.875Z,100.00
2022-10-04T21:21:04.203Z,100.00
2022-10-04T21:23:34.518Z,100.00
2022-10-04T21:26:23.647Z,100.00
2022-10-04T21:28:57.017Z,100.00
2022-10-04T21:31:24.548Z,100.00
2022-10-04T21:33:51.598Z,100.00
2022-10-04T21:36:18.385Z,100.00
2022-10-04T21:38:45.218Z,100.00
2022-10-04T21:41:12.107Z,100.00
2022-10-04T21:43:38.929Z,100.00
2022-10-04T21:46:05.982Z,100.00
2022-10-04T21:48:33.098Z,100.00
2022-10-04T21:50:59.957Z,100.00
2022-10-04T21:53:26.796Z,100.00
2022-10-04T21:55:53.687Z,100.00
2022-10-04T21:58:20.489Z,100.00
2022-10-04T22:00:47.355Z,100.00
2022-10-04T22:03:14.321Z,100.00
2022-10-04T22:05:41.209Z,100.00
2022-10-04T22:08:08.018Z,100.00
2022-10-04T22:10:35.210Z,100.00
2022-10-04T22:13:02.061Z,100.00
2022-10-04T22:15:29.204Z,100.00
2022-10-04T22:17:56.628Z,100.00
2022-10-04T22:20:24.893Z,100.00
2022-10-04T22:22:53.107Z,100.00
2022-10-04T22:25:22.912Z,100.00
2022-10-04T22:27:51.852Z,100.00
2022-10-04T22:30:31.035Z,100.00
2022-10-04T22:33:00.781Z,100.00
2022-10-04T22:35:31.818Z,100.00
2022-10-04T22:38:00.290Z,100.00
2022-10-04T22:40:28.618Z,100.00
2022-10-04T22:42:57.256Z,100.00
2022-10-04T22:45:33.445Z,100.00
2022-10-04T22:48:07.768Z,100.00
2022-10-04T22:50:37.392Z,100.00
2022-10-04T22:53:20.252Z,100.00
2022-10-04T22:55:49.273Z,100.00
2022-10-04T22:58:16.954Z,100.00
2022-10-04T23:00:44.793Z,100.00
2022-10-04T23:03:28.815Z,100.00
2022-10-04T23:05:55.711Z,100.00
2022-10-04T23:08:22.554Z,100.00
2022-10-04T23:10:58.051Z,100.00
2022-10-04T23:13:26.410Z,100.00
2022-10-04T23:15:58.213Z,100.00
2022-10-04T23:18:26.384Z,100.00
2022-10-04T23:20:58.577Z,100.00
2022-10-04T23:23:28.548Z,100.00
2022-10-04T23:25:56.579Z,100.00
2022-10-04T23:28:24.388Z,100.00
2022-10-04T23:31:21.246Z,100.00
2022-10-04T23:33:48.147Z,100.00
2022-10-04T23:36:15.787Z,100.00
2022-10-04T23:38:51.226Z,100.00
2022-10-04T23:41:19.768Z,100.00
2022-10-04T23:43:49.002Z,100.00
2022-10-04T23:46:20.544Z,100.00
2022-10-04T23:48:48.286Z,100.00
2022-10-04T23:51:18.721Z,100.00
2022-10-04T23:53:49.127Z,100.00
2022-10-04T23:56:23.669Z,100.00
2022-10-04T23:58:53.382Z,100.00
